Time,TemperatureF,DewpointF,PressureIn,WindDirection,WindDirectionDegrees,WindSpeedMPH,WindSpeedGustMPH,Humidity,HourlyPrecipIn,Conditions,Clouds,dailyrainin,SoftwareType,DateUTC
2013-06-19 00:00:00,74.5,73.3,29.85,ESE,111,0.0,0.0,96,0.00,,BKN035,0.39,VWS V14.01,2013-06-19 04:00:00,
2013-06-19 00:01:00,74.4,73.2,29.85,ESE,111,0.0,0.0,96,0.00,,-RA,0.00,VWS V14.01,2013-06-19 04:01:00,
2013-06-19 00:06:00,74.4,73.2,29.85,ESE,111,0.0,0.0,96,0.00,,-RA,0.00,VWS V14.01,2013-06-19 04:06:00,
2013-06-19 00:11:00,74.4,73.2,29.85,ESE,110,0.0,0.0,96,0.00,,-RA,0.00,VWS V14.01,2013-06-19 04:11:00,
2013-06-19 00:15:00,74.3,73.1,29.85,ESE,110,0.0,0.0,96,0.00,,-RA,0.00,VWS V14.01,2013-06-19 04:15:00,
2013-06-19 00:21:00,74.2,73.0,29.85,ESE,110,0.0,0.0,96,0.00,,-RA,0.00,VWS V14.01,2013-06-19 04:21:00,
2013-06-19 00:26:00,74.2,73.0,29.85,ESE,111,0.0,0.0,96,0.00,,-RA,0.00,VWS V14.01,2013-06-19 04:26:00,
2013-06-19 00:30:00,74.2,73.0,29.85,ESE,111,0.0,0.0,96,0.00,,BKN035,0.00,VWS V14.01,2013-06-19 04:30:00,
2013-06-19 00:31:00,74.1,72.9,29.85,ESE,111,0.0,0.0,96,0.00,,-RA,0.00,VWS V14.01,2013-06-19 04:31:00,
2013-06-19 00:36:00,74.1,72.9,29.85,ESE,111,0.0,0.0,96,0.00,,-RA,0.00,VWS V14.01,2013-06-19 04:36:00,
2013-06-19 00:41:00,74.1,72.9,29.85,ESE,111,0.0,0.0,96,0.00,,-RA,0.00,VWS V14.01,2013-06-19 04:41:00,
2013-06-19 00:45:00,74.1,72.9,29.84,ESE,111,0.0,0.0,96,0.00,,BKN035,0.00,VWS V14.01,2013-06-19 04:45:00,
2013-06-19 00:46:00,74.0,72.8,29.84,ESE,110,0.0,0.0,96,0.00,,-RA,0.00,VWS V14.01,2013-06-19 04:46:00,
2013-06-19 00:51:00,74.0,72.8,29.84,ESE,111,0.0,0.0,96,0.00,,-RA,0.00,VWS V14.01,2013-06-19 04:51:00,
2013-06-19 00:56:00,74.0,72.8,29.84,ESE,110,0.0,0.0,96,0.00,,-RA,0.00,VWS V14.01,2013-06-19 04:56:00,
2013-06-19 01:00:00,74.0,72.8,29.84,ESE,111,0.0,0.0,96,0.00,,BKN035,0.00,VWS V14.01,2013-06-19 05:00:00,
2013-06-19 01:01:00,74.0,72.8,29.84,ESE,111,0.0,0.0,96,0.00,,CLR,0.00,VWS V14.01,2013-06-19 05:01:00,
2013-06-19 01:06:00,74.1,72.9,29.84,ESE,110,0.0,0.0,96,0.00,,CLR,0.00,VWS V14.01,2013-06-19 05:06:00,
2013-06-19 01:11:00,74.1,72.9,29.84,ESE,111,0.0,0.0,96,0.00,,CLR,0.00,VWS V14.01,2013-06-19 05:11:00,
2013-06-19 01:15:00,74.1,72.9,29.84,ESE,110,0.0,0.0,96,0.00,,BKN035,0.00,VWS V14.01,2013-06-19 05:15:00,
2013-06-19 01:16:00,74.1,72.9,29.84,ESE,111,0.0,0.0,96,0.00,,CLR,0.00,VWS V14.01,2013-06-19 05:16:00,
2013-06-19 01:21:00,74.0,72.8,29.83,ESE,111,0.0,0.0,96,0.00,,CLR,0.00,VWS V14.01,2013-06-19 05:21:00,
2013-06-19 01:26:00,74.0,72.8,29.84,ESE,111,0.0,0.0,96,0.00,,CLR,0.00,VWS V14.01,2013-06-19 05:26:00,
2013-06-19 01:30:00,74.0,72.8,29.84,ESE,111,0.0,0.0,96,0.00,,BKN035,0.00,VWS V14.01,2013-06-19 05:30:00,
2013-06-19 01:31:00,74.0,72.8,29.84,ESE,110,0.0,0.0,96,0.00,,CLR,0.00,VWS V14.01,2013-06-19 05:31:00,
2013-06-19 01:36:00,73.9,72.7,29.84,ESE,111,0.0,0.0,96,0.00,,CLR,0.00,VWS V14.01,2013-06-19 05:36:00,
2013-06-19 01:41:00,73.9,72.7,29.84,ESE,110,0.0,0.0,96,0.00,,CLR,0.00,VWS V14.01,2013-06-19 05:41:00,
2013-06-19 01:45:00,73.9,72.7,29.84,ESE,111,0.0,0.0,96,0.00,,BKN035,0.00,VWS V14.01,2013-06-19 05:45:00,
2013-06-19 01:46:00,73.8,72.6,29.84,ESE,110,0.0,0.0,96,0.00,,CLR,0.00,VWS V14.01,2013-06-19 05:46:00,
2013-06-19 01:52:00,73.8,72.6,29.84,ESE,111,0.0,0.0,96,0.00,,CLR,0.00,VWS V14.01,2013-06-19 05:52:00,
2013-06-19 01:57:00,73.8,72.6,29.84,ESE,111,0.0,0.0,96,0.00,,CLR,0.00,VWS V14.01,2013-06-19 05:57:00,
2013-06-19 02:00:00,73.7,72.5,29.84,ESE,110,0.0,0.0,96,0.00,,BKN035,0.00,VWS V14.01,2013-06-19 06:00:00,
2013-06-19 02:02:00,73.7,72.5,29.84,ESE,111,0.0,0.0,96,0.00,,CLR,0.00,VWS V14.01,2013-06-19 06:02:00,
2013-06-19 02:07:00,73.6,72.4,29.84,ESE,110,0.0,0.0,96,0.00,,CLR,0.00,VWS V14.01,2013-06-19 06:07:00,
2013-06-19 02:12:00,73.6,72.4,29.84,ESE,111,0.0,0.0,96,0.00,,CLR,0.00,VWS V14.01,2013-06-19 06:12:00,
2013-06-19 02:15:00,73.6,72.4,29.84,ESE,111,0.0,0.0,96,0.00,,BKN035,0.00,VWS V14.01,2013-06-19 06:15:00,
2013-06-19 02:17:00,73.5,72.3,29.84,ESE,111,0.0,0.0,96,0.00,,CLR,0.00,VWS V14.01,2013-06-19 06:17:00,
2013-06-19 02:22:00,73.5,72.3,29.84,ESE,110,0.0,0.0,96,0.00,,CLR,0.00,VWS V14.01,2013-06-19 06:22:00,
2013-06-19 02:27:00,73.5,72.3,29.84,ESE,110,0.0,0.0,96,0.00,,CLR,0.00,VWS V14.01,2013-06-19 06:27:00,
2013-06-19 02:30:00,73.5,72.3,29.84,ESE,110,0.0,0.0,96,0.00,,BKN035,0.00,VWS V14.01,2013-06-19 06:30:00,
2013-06-19 02:32:00,73.5,72.3,29.84,ESE,110,0.0,0.0,96,0.00,,CLR,0.00,VWS V14.01,2013-06-19 06:32:00,
2013-06-19 02:37:00,73.5,72.3,29.85,ESE,111,0.0,0.0,96,0.00,,CLR,0.00,VWS V14.01,2013-06-19 06:37:00,
2013-06-19 02:42:00,73.5,72.3,29.85,ESE,111,0.0,0.0,96,0.00,,CLR,0.00,VWS V14.01,2013-06-19 06:42:00,
2013-06-19 02:45:00,73.5,72.3,29.84,ESE,110,0.0,0.0,96,0.00,,BKN035,0.00,VWS V14.01,2013-06-19 06:45:00,
2013-06-19 02:47:00,73.5,72.3,29.85,ESE,111,0.0,0.0,96,0.00,,CLR,0.00,VWS V14.01,2013-06-19 06:47:00,
2013-06-19 02:52:00,73.6,72.7,29.84,ESE,110,0.0,0.0,97,0.00,,CLR,0.00,VWS V14.01,2013-06-19 06:52:00,
2013-06-19 02:57:00,73.6,72.7,29.84,ESE,111,0.0,0.0,97,0.00,,CLR,0.00,VWS V14.01,2013-06-19 06:57:00,
2013-06-19 03:00:00,73.5,72.6,29.84,ESE,110,0.0,0.0,97,0.00,,BKN035,0.00,VWS V14.01,2013-06-19 07:00:00,
2013-06-19 03:02:00,73.5,72.3,29.84,ESE,111,0.0,0.0,96,0.00,,FEW100,0.00,VWS V14.01,2013-06-19 07:02:00,
2013-06-19 03:07:00,73.5,72.3,29.84,ESE,110,0.0,0.0,96,0.00,,FEW100,0.00,VWS V14.01,2013-06-19 07:07:00,
2013-06-19 03:12:00,73.4,72.5,29.84,ESE,111,0.0,0.0,97,0.00,,FEW100,0.00,VWS V14.01,2013-06-19 07:12:00,
2013-06-19 03:15:00,73.4,72.5,29.84,ESE,111,0.0,0.0,97,0.00,,BKN035,0.00,VWS V14.01,2013-06-19 07:15:00,
2013-06-19 03:17:00,73.4,72.5,29.84,ESE,110,0.0,0.0,97,0.00,,FEW100,0.00,VWS V14.01,2013-06-19 07:17:00,
2013-06-19 03:22:00,73.3,72.4,29.84,ESE,111,0.0,0.0,97,0.00,,FEW100,0.00,VWS V14.01,2013-06-19 07:22:00,
2013-06-19 03:27:00,73.3,72.4,29.84,ESE,111,0.0,0.0,97,0.00,,FEW100,0.00,VWS V14.01,2013-06-19 07:27:00,
2013-06-19 03:30:00,73.2,72.3,29.84,ESE,111,0.0,0.0,97,0.00,,BKN035,0.00,VWS V14.01,2013-06-19 07:30:00,
2013-06-19 03:32:00,73.2,72.3,29.84,ESE,111,0.0,0.0,97,0.00,,FEW100,0.00,VWS V14.01,2013-06-19 07:32:00,
2013-06-19 03:37:00,73.1,72.2,29.84,ESE,111,0.0,0.0,97,0.00,,FEW100,0.00,VWS V14.01,2013-06-19 07:37:00,
2013-06-19 03:42:00,73.1,72.2,29.84,ESE,110,0.0,0.0,97,0.00,,FEW100,0.00,VWS V14.01,2013-06-19 07:42:00,
2013-06-19 03:45:00,73.1,72.2,29.84,ESE,111,0.0,0.0,97,0.00,,BKN035,0.00,VWS V14.01,2013-06-19 07:45:00,
2013-06-19 03:47:00,73.0,72.1,29.84,ESE,111,0.0,0.0,97,0.00,,FEW100,0.00,VWS V14.01,2013-06-19 07:47:00,
2013-06-19 03:52:00,73.0,72.1,29.84,ESE,110,0.0,0.0,97,0.00,,FEW100,0.00,VWS V14.01,2013-06-19 07:52:00,
2013-06-19 03:57:00,73.0,72.1,29.84,ESE,111,0.0,0.0,97,0.00,,FEW100,0.00,VWS V14.01,2013-06-19 07:57:00,
2013-06-19 04:00:00,73.0,72.1,29.84,ESE,111,0.0,0.0,97,0.00,,BKN035,0.00,VWS V14.01,2013-06-19 08:00:00,
2013-06-19 04:02:00,73.0,72.1,29.84,ESE,111,0.0,0.0,97,0.00,,SCT060,0.00,VWS V14.01,2013-06-19 08:02:00,
2013-06-19 04:07:00,73.0,72.1,29.85,ESE,111,0.0,0.0,97,0.00,,SCT060,0.00,VWS V14.01,2013-06-19 08:07:00,
2013-06-19 04:12:00,73.0,72.1,29.85,ESE,111,0.0,0.0,97,0.00,,SCT060,0.00,VWS V14.01,2013-06-19 08:12:00,
2013-06-19 04:15:00,73.0,72.1,29.85,ESE,110,0.0,0.0,97,0.00,,BKN035,0.00,VWS V14.01,2013-06-19 08:15:00,
2013-06-19 04:17:00,73.0,72.1,29.85,ESE,110,0.0,0.0,97,0.00,,SCT060,0.00,VWS V14.01,2013-06-19 08:17:00,
2013-06-19 04:22:00,72.9,72.0,29.85,ESE,111,0.0,0.0,97,0.00,,SCT060,0.00,VWS V14.01,2013-06-19 08:22:00,
2013-06-19 04:27:00,72.9,72.0,29.85,ESE,110,0.0,0.0,97,0.00,,SCT060,0.00,VWS V14.01,2013-06-19 08:27:00,
2013-06-19 04:30:00,72.9,72.0,29.85,ESE,111,0.0,0.0,97,0.00,,BKN035,0.00,VWS V14.01,2013-06-19 08:30:00,
2013-06-19 04:32:00,72.9,72.0,29.85,ESE,111,0.0,0.0,97,0.00,,SCT060,0.00,VWS V14.01,2013-06-19 08:32:00,
2013-06-19 04:37:00,72.9,72.0,29.85,ESE,111,0.0,0.0,97,0.00,,SCT060,0.00,VWS V14.01,2013-06-19 08:37:00,
2013-06-19 04:42:00,72.9,72.0,29.85,ESE,111,0.0,0.0,97,0.00,,SCT060,0.00,VWS V14.01,2013-06-19 08:42:00,
2013-06-19 04:45:00,72.9,72.0,29.85,ESE,111,0.0,0.0,97,0.00,,BKN035,0.00,VWS V14.01,2013-06-19 08:45:00,
2013-06-19 04:47:00,72.9,72.0,29.85,ESE,111,0.0,0.0,97,0.00,,SCT060,0.00,VWS V14.01,2013-06-19 08:47:00,
2013-06-19 04:53:00,72.9,72.0,29.85,ESE,111,0.0,0.0,97,0.00,,SCT060,0.00,VWS V14.01,2013-06-19 08:53:00,
2013-06-19 04:58:00,72.8,71.9,29.85,ESE,111,0.0,0.0,97,0.00,,SCT060,0.00,VWS V14.01,2013-06-19 08:58:00,
2013-06-19 05:00:00,72.8,71.9,29.86,ESE,111,0.0,0.0,97,0.00,,BKN035,0.00,VWS V14.01,2013-06-19 09:00:00,
2013-06-19 05:03:00,72.8,71.9,29.86,ESE,110,0.0,0.0,97,0.00,,OVC110,0.00,VWS V14.01,2013-06-19 09:03:00,
2013-06-19 05:08:00,72.8,71.9,29.86,ESE,111,0.0,0.0,97,0.00,,OVC110,0.00,VWS V14.01,2013-06-19 09:08:00,
2013-06-19 05:13:00,72.8,71.9,29.86,ESE,111,0.0,0.0,97,0.00,,OVC110,0.00,VWS V14.01,2013-06-19 09:13:00,
2013-06-19 05:15:00,72.8,71.9,29.86,ESE,111,0.0,0.0,97,0.00,,BKN035,0.00,VWS V14.01,2013-06-19 09:15:00,
2013-06-19 05:18:00,72.8,71.9,29.86,ESE,111,0.0,0.0,97,0.00,,OVC110,0.00,VWS V14.01,2013-06-19 09:18:00,
2013-06-19 05:23:00,72.8,71.9,29.86,ESE,110,0.0,0.0,97,0.00,,OVC110,0.00,VWS V14.01,2013-06-19 09:23:00,
2013-06-19 05:28:00,72.8,71.9,29.86,ESE,111,0.0,0.0,97,0.00,,OVC110,0.00,VWS V14.01,2013-06-19 09:28:00,
2013-06-19 05:30:00,72.8,71.9,29.86,ESE,110,0.0,0.0,97,0.00,,BKN035,0.00,VWS V14.01,2013-06-19 09:30:00,
2013-06-19 05:33:00,72.8,71.9,29.86,ESE,111,0.0,0.0,97,0.00,,OVC110,0.00,VWS V14.01,2013-06-19 09:33:00,
2013-06-19 05:38:00,72.8,71.9,29.86,ESE,110,0.0,0.0,97,0.00,,OVC110,0.00,VWS V14.01,2013-06-19 09:38:00,
2013-06-19 05:43:00,72.8,71.9,29.87,ESE,111,0.0,0.0,97,0.00,,OVC110,0.00,VWS V14.01,2013-06-19 09:43:00,
2013-06-19 05:45:00,72.8,71.9,29.87,ESE,111,0.0,0.0,97,0.00,,BKN035,0.00,VWS V14.01,2013-06-19 09:45:00,
2013-06-19 05:48:00,72.8,71.9,29.87,ESE,111,0.0,0.0,97,0.00,,OVC110,0.00,VWS V14.01,2013-06-19 09:48:00,
2013-06-19 05:53:00,72.8,71.9,29.87,ESE,111,0.0,0.0,97,0.00,,OVC110,0.00,VWS V14.01,2013-06-19 09:53:00,
2013-06-19 05:58:00,72.8,71.9,29.87,ESE,111,0.0,0.0,97,0.00,,OVC110,0.00,VWS V14.01,2013-06-19 09:58:00,
2013-06-19 06:00:00,72.8,71.9,29.87,ESE,111,0.0,0.0,97,0.00,,BKN035,0.00,VWS V14.01,2013-06-19 10:00:00,
2013-06-19 06:03:00,72.8,71.9,29.87,ESE,111,0.0,0.0,97,0.00,,BKN085,0.00,VWS V14.01,2013-06-19 10:03:00,
2013-06-19 06:08:00,72.8,71.9,29.87,ESE,111,0.0,0.0,97,0.00,,BKN085,0.00,VWS V14.01,2013-06-19 10:08:00,
2013-06-19 06:13:00,72.8,71.9,29.87,ESE,110,0.0,0.0,97,0.00,,BKN085,0.00,VWS V14.01,2013-06-19 10:13:00,
2013-06-19 06:15:00,72.8,71.9,29.87,ESE,111,0.0,0.0,97,0.00,,BKN035,0.00,VWS V14.01,2013-06-19 10:15:00,
2013-06-19 06:18:00,72.8,71.9,29.87,ESE,111,0.0,0.0,97,0.00,,BKN085,0.00,VWS V14.01,2013-06-19 10:18:00,
2013-06-19 06:23:00,72.7,71.8,29.87,ESE,111,0.0,0.0,97,0.00,,BKN085,0.00,VWS V14.01,2013-06-19 10:23:00,
2013-06-19 06:28:00,72.8,71.9,29.88,ESE,110,0.0,0.0,97,0.00,,BKN085,0.00,VWS V14.01,2013-06-19 10:28:00,
2013-06-19 06:30:00,72.8,71.9,29.88,ESE,111,0.0,0.0,97,0.00,,BKN035,0.00,VWS V14.01,2013-06-19 10:30:00,
2013-06-19 06:33:00,72.8,71.9,29.88,ESE,111,0.0,0.0,97,0.00,,BKN085,0.00,VWS V14.01,2013-06-19 10:33:00,
2013-06-19 06:38:00,72.8,71.9,29.88,ESE,111,0.0,0.0,97,0.00,,BKN085,0.00,VWS V14.01,2013-06-19 10:38:00,
2013-06-19 06:43:00,72.8,71.9,29.88,ESE,111,0.0,0.0,97,0.00,,BKN085,0.00,VWS V14.01,2013-06-19 10:43:00,
2013-06-19 06:45:00,72.8,71.9,29.88,ESE,110,0.0,0.0,97,0.00,,BKN035,0.00,VWS V14.01,2013-06-19 10:45:00,
2013-06-19 06:48:00,72.8,71.9,29.88,ESE,111,0.0,0.0,97,0.00,,BKN085,0.00,VWS V14.01,2013-06-19 10:48:00,
2013-06-19 06:53:00,72.8,71.9,29.88,ESE,111,0.0,0.0,97,0.00,,BKN085,0.00,VWS V14.01,2013-06-19 10:53:00,
2013-06-19 06:58:00,72.9,72.0,29.88,ESE,110,0.0,0.0,97,0.00,,BKN085,0.00,VWS V14.01,2013-06-19 10:58:00,
2013-06-19 07:00:00,72.9,72.0,29.88,ESE,110,0.0,0.0,97,0.00,,BKN035,0.00,VWS V14.01,2013-06-19 11:00:00,
2013-06-19 07:03:00,72.9,72.0,29.88,ESE,111,0.0,0.0,97,0.00,,OVC018,0.00,VWS V14.01,2013-06-19 11:03:00,
2013-06-19 07:08:00,72.9,72.0,29.88,ESE,111,0.0,0.0,97,0.00,,OVC018,0.00,VWS V14.01,2013-06-19 11:08:00,
2013-06-19 07:13:00,72.9,72.0,29.88,ESE,110,0.0,0.0,97,0.00,,OVC018,0.00,VWS V14.01,2013-06-19 11:13:00,
2013-06-19 07:15:00,73.0,72.1,29.88,ESE,111,0.0,0.0,97,0.00,,BKN035,0.00,VWS V14.01,2013-06-19 11:15:00,
2013-06-19 07:18:00,73.0,72.1,29.88,ESE,111,0.0,0.0,97,0.00,,OVC018,0.00,VWS V14.01,2013-06-19 11:18:00,
2013-06-19 07:23:00,73.2,72.3,29.89,ESE,110,0.0,0.0,97,0.00,,OVC018,0.00,VWS V14.01,2013-06-19 11:23:00,
2013-06-19 07:28:00,73.3,72.4,29.89,ESE,111,0.0,0.0,97,0.00,,OVC018,0.00,VWS V14.01,2013-06-19 11:28:00,
2013-06-19 07:30:00,73.3,72.4,29.89,ESE,111,0.0,0.0,97,0.00,,BKN035,0.00,VWS V14.01,2013-06-19 11:30:00,
2013-06-19 07:33:00,73.4,72.5,29.89,ESE,110,0.0,0.0,97,0.00,,OVC018,0.00,VWS V14.01,2013-06-19 11:33:00,
2013-06-19 07:38:00,73.5,72.6,29.89,ESE,111,0.0,0.0,97,0.00,,OVC018,0.00,VWS V14.01,2013-06-19 11:38:00,
2013-06-19 07:43:00,73.6,72.7,29.89,ESE,110,0.0,0.0,97,0.00,,OVC018,0.00,VWS V14.01,2013-06-19 11:43:00,
2013-06-19 07:45:00,73.6,72.7,29.89,ESE,111,0.0,0.0,97,0.00,,BKN035,0.00,VWS V14.01,2013-06-19 11:45:00,
2013-06-19 07:48:00,73.7,72.8,29.90,ESE,110,0.0,0.0,97,0.00,,OVC018,0.00,VWS V14.01,2013-06-19 11:48:00,
2013-06-19 07:54:00,73.8,72.9,29.90,ESE,111,0.0,0.0,97,0.00,,OVC018,0.00,VWS V14.01,2013-06-19 11:54:00,
2013-06-19 07:59:00,73.9,73.0,29.90,ESE,110,0.0,0.0,97,0.00,,OVC018,0.00,VWS V14.01,2013-06-19 11:59:00,
2013-06-19 08:00:00,73.9,73.0,29.90,ESE,111,0.0,0.0,97,0.00,,BKN035,0.00,VWS V14.01,2013-06-19 12:00:00,
2013-06-19 08:04:00,73.9,73.0,29.90,ESE,111,0.0,0.0,97,0.00,,OVC016,0.00,VWS V14.01,2013-06-19 12:04:00,
2013-06-19 08:09:00,73.9,73.0,29.90,ESE,111,0.0,0.0,97,0.00,,OVC016,0.00,VWS V14.01,2013-06-19 12:09:00,
2013-06-19 08:14:00,74.0,73.1,29.90,ESE,111,0.0,0.0,97,0.00,,OVC016,0.00,VWS V14.01,2013-06-19 12:14:00,
2013-06-19 08:15:00,74.1,73.2,29.90,ESE,110,0.0,0.0,97,0.00,,BKN035,0.00,VWS V14.01,2013-06-19 12:15:00,
2013-06-19 08:19:00,74.2,73.3,29.90,ESE,111,0.0,0.0,97,0.00,,OVC016,0.00,VWS V14.01,2013-06-19 12:19:00,
2013-06-19 08:24:00,74.2,73.3,29.91,ESE,102,0.0,1.0,97,0.00,,OVC016,0.00,VWS V14.01,2013-06-19 12:24:00,
2013-06-19 08:29:00,74.2,73.3,29.91,ESE,115,0.0,1.0,97,0.00,,OVC016,0.00,VWS V14.01,2013-06-19 12:29:00,
2013-06-19 08:30:00,74.3,73.4,29.91,ESE,115,0.0,1.0,97,0.00,,BKN035,0.00,VWS V14.01,2013-06-19 12:30:00,
2013-06-19 08:34:00,74.3,73.4,29.91,ESE,114,0.0,0.0,97,0.00,,OVC016,0.00,VWS V14.01,2013-06-19 12:34:00,
2013-06-19 08:39:00,74.5,73.6,29.92,ESE,115,0.0,0.0,97,0.00,,OVC016,0.00,VWS V14.01,2013-06-19 12:39:00,
2013-06-19 08:44:00,74.7,73.5,29.91,SSW,205,0.0,2.0,96,0.00,,OVC016,0.00,VWS V14.01,2013-06-19 12:44:00,
2013-06-19 08:45:00,74.7,73.5,29.92,SSW,205,0.0,2.0,96,0.00,,BKN035,0.00,VWS V14.01,2013-06-19 12:45:00,
2013-06-19 08:49:00,74.8,73.6,29.91,SSW,205,0.0,0.0,96,0.00,,OVC016,0.00,VWS V14.01,2013-06-19 12:49:00,
2013-06-19 08:54:00,74.9,73.7,29.92,SW,218,0.0,2.0,96,0.00,,OVC016,0.00,VWS V14.01,2013-06-19 12:54:00,
2013-06-19 08:59:00,75.1,73.9,29.92,SW,222,0.0,2.0,96,0.00,,OVC016,0.00,VWS V14.01,2013-06-19 12:59:00,
2013-06-19 09:00:00,75.1,73.9,29.92,SW,222,0.0,2.0,96,0.00,,BKN035,0.00,VWS V14.01,2013-06-19 13:00:00,
2013-06-19 09:04:00,75.3,73.8,29.92,SW,222,0.0,1.0,95,0.00,,BKN013,0.00,VWS V14.01,2013-06-19 13:04:00,
2013-06-19 09:09:00,75.5,74.0,29.92,SW,226,0.0,2.0,95,0.00,,BKN013,0.00,VWS V14.01,2013-06-19 13:09:00,
2013-06-19 09:14:00,75.7,73.8,29.92,South,179,0.0,5.0,94,0.00,,BKN013,0.00,VWS V14.01,2013-06-19 13:14:00,
2013-06-19 09:15:00,75.7,73.9,29.92,South,179,0.0,5.0,94,0.00,,BKN035,0.00,VWS V14.01,2013-06-19 13:15:00,
2013-06-19 09:19:00,75.8,73.9,29.92,South,179,0.0,0.0,94,0.00,,BKN013,0.00,VWS V14.01,2013-06-19 13:19:00,
2013-06-19 09:24:00,76.0,74.2,29.92,SSW,210,1.0,2.0,94,0.00,,BKN013,0.00,VWS V14.01,2013-06-19 13:24:00,
2013-06-19 09:29:00,76.1,73.9,29.92,WSW,252,0.0,2.0,93,0.00,,BKN013,0.00,VWS V14.01,2013-06-19 13:29:00,
2013-06-19 09:30:00,76.1,73.9,29.92,WSW,252,0.0,2.0,93,0.00,,BKN035,0.00,VWS V14.01,2013-06-19 13:30:00,
2013-06-19 09:34:00,76.2,74.0,29.92,WSW,252,0.0,0.0,93,0.00,,BKN100,0.00,VWS V14.01,2013-06-19 13:34:00,
2013-06-19 09:39:00,76.4,74.2,29.92,WSW,252,0.0,0.0,93,0.00,,BKN100,0.00,VWS V14.01,2013-06-19 13:39:00,
2013-06-19 09:44:00,76.7,74.5,29.92,WSW,252,0.0,0.0,93,0.00,,BKN100,0.00,VWS V14.01,2013-06-19 13:44:00,
2013-06-19 09:45:00,76.7,74.5,29.92,WSW,252,0.0,0.0,93,0.00,,BKN035,0.00,VWS V14.01,2013-06-19 13:45:00,
2013-06-19 09:49:00,76.8,74.3,29.92,WSW,252,0.0,0.0,92,0.00,,BKN100,0.00,VWS V14.01,2013-06-19 13:49:00,
2013-06-19 09:54:00,77.0,74.5,29.92,WSW,252,0.0,0.0,92,0.00,,BKN100,0.00,VWS V14.01,2013-06-19 13:54:00,
2013-06-19 09:59:00,77.1,74.3,29.92,WSW,252,0.0,2.0,91,0.00,,BKN100,0.00,VWS V14.01,2013-06-19 13:59:00,
2013-06-19 10:00:00,77.0,73.8,29.92,WSW,252,0.0,2.0,90,0.00,,BKN035,0.00,VWS V14.01,2013-06-19 14:00:00,
2013-06-19 10:04:00,77.1,74.3,29.92,WSW,252,0.0,0.0,91,0.00,,BKN110,0.00,VWS V14.01,2013-06-19 14:04:00,
2013-06-19 10:09:00,77.2,74.4,29.92,WSW,252,0.0,1.0,91,0.00,,BKN110,0.00,VWS V14.01,2013-06-19 14:09:00,
2013-06-19 10:14:00,77.4,74.6,29.92,WSW,252,0.0,2.0,91,0.00,,BKN110,0.00,VWS V14.01,2013-06-19 14:14:00,
2013-06-19 10:15:00,77.4,74.6,29.92,WSW,252,0.0,2.0,91,0.00,,BKN035,0.00,VWS V14.01,2013-06-19 14:15:00,
2013-06-19 10:19:00,77.2,74.0,29.92,WNW,284,1.0,3.0,90,0.00,,BKN110,0.00,VWS V14.01,2013-06-19 14:19:00,
2013-06-19 10:24:00,77.0,73.8,29.92,WNW,284,0.0,3.0,90,0.00,,BKN110,0.00,VWS V14.01,2013-06-19 14:24:00,
2013-06-19 10:29:00,76.9,74.1,29.93,WNW,284,0.0,3.0,91,0.00,,BKN110,0.00,VWS V14.01,2013-06-19 14:29:00,
2013-06-19 10:30:00,76.9,74.1,29.93,WNW,284,0.0,3.0,91,0.00,,BKN035,0.00,VWS V14.01,2013-06-19 14:30:00,
2013-06-19 10:34:00,76.7,73.9,29.93,WNW,284,1.0,1.0,91,0.00,,BKN022,0.00,VWS V14.01,2013-06-19 14:34:00,
2013-06-19 10:39:00,76.7,74.2,29.93,WNW,284,0.0,1.0,92,0.00,,BKN022,0.00,VWS V14.01,2013-06-19 14:39:00,
2013-06-19 10:44:00,76.5,73.7,29.93,WNW,284,0.0,1.0,91,0.00,,BKN022,0.00,VWS V14.01,2013-06-19 14:44:00,
2013-06-19 10:45:00,76.5,73.7,29.93,WNW,284,0.0,1.0,91,0.00,,BKN035,0.00,VWS V14.01,2013-06-19 14:45:00,
2013-06-19 10:49:00,76.4,73.9,29.93,WNW,284,0.0,1.0,92,0.00,,BKN022,0.00,VWS V14.01,2013-06-19 14:49:00,
2013-06-19 10:55:00,76.4,73.9,29.93,WNW,284,0.0,1.0,92,0.00,,BKN022,0.00,VWS V14.01,2013-06-19 14:55:00,
2013-06-19 11:00:00,76.6,74.1,29.93,WNW,284,0.0,1.0,92,0.00,,BKN022,0.00,VWS V14.01,2013-06-19 15:00:00,
2013-06-19 11:05:00,76.9,74.4,29.93,WNW,284,2.0,2.0,92,0.00,,BKN034,0.00,VWS V14.01,2013-06-19 15:05:00,
2013-06-19 11:10:00,77.1,74.3,29.93,WNW,285,2.0,2.0,91,0.00,,BKN034,0.00,VWS V14.01,2013-06-19 15:10:00,
2013-06-19 11:15:00,77.3,74.1,29.93,WNW,284,1.0,4.0,90,0.00,,BKN034,0.00,VWS V14.01,2013-06-19 15:15:00,
2013-06-19 11:20:00,77.6,74.4,29.94,WNW,285,0.0,4.0,90,0.00,,BKN034,0.00,VWS V14.01,2013-06-19 15:20:00,
2013-06-19 11:25:00,77.7,74.2,29.94,NW,311,0.0,5.0,89,0.00,,BKN034,0.00,VWS V14.01,2013-06-19 15:25:00,
2013-06-19 11:30:00,77.9,74.4,29.94,NW,311,0.0,5.0,89,0.00,,BKN034,0.00,VWS V14.01,2013-06-19 15:30:00,
2013-06-19 11:35:00,78.3,74.8,29.94,NW,312,0.0,2.0,89,0.00,,OVC037,0.00,VWS V14.01,2013-06-19 15:35:00,
2013-06-19 11:40:00,78.7,75.2,29.94,NW,311,0.0,2.0,89,0.00,,OVC037,0.00,VWS V14.01,2013-06-19 15:40:00,
2013-06-19 11:45:00,78.8,74.9,29.94,NW,316,1.0,4.0,88,0.00,,OVC037,0.00,VWS V14.01,2013-06-19 15:45:00,
2013-06-19 11:50:00,78.9,74.7,29.94,NW,315,0.0,2.0,87,0.00,,OVC037,0.00,VWS V14.01,2013-06-19 15:50:00,
2013-06-19 11:55:00,79.0,74.5,29.94,NW,316,2.0,4.0,86,0.00,,OVC037,0.00,VWS V14.01,2013-06-19 15:55:00,
2013-06-19 12:00:00,79.1,74.9,29.94,NW,315,0.0,4.0,87,0.00,,OVC037,0.00,VWS V14.01,2013-06-19 16:00:00,
2013-06-19 12:05:00,79.3,74.8,29.94,NW,315,0.0,0.0,86,0.00,,-RA,0.00,VWS V14.01,2013-06-19 16:05:00,
2013-06-19 12:10:00,79.4,74.5,29.95,NW,316,0.0,1.0,85,0.00,,-RA,0.00,VWS V14.01,2013-06-19 16:10:00,
2013-06-19 12:15:00,79.5,74.9,29.95,NW,316,0.0,1.0,86,0.00,,-RA,0.00,VWS V14.01,2013-06-19 16:15:00,
2013-06-19 12:20:00,79.7,74.8,29.95,NW,316,4.0,4.0,85,0.00,,-RA,0.00,VWS V14.01,2013-06-19 16:20:00,
2013-06-19 12:25:00,79.7,74.8,29.94,NW,317,2.0,4.0,85,0.00,,-RA,0.00,VWS V14.01,2013-06-19 16:25:00,
2013-06-19 12:30:00,79.7,74.4,29.94,NW,316,0.0,4.0,84,0.00,,-RA,0.00,VWS V14.01,2013-06-19 16:30:00,
2013-06-19 12:35:00,79.7,74.8,29.94,NNW,342,1.0,5.0,85,0.00,,OVC045,0.00,VWS V14.01,2013-06-19 16:35:00,
2013-06-19 12:40:00,79.6,74.7,29.94,NNW,342,0.0,5.0,85,0.00,,OVC045,0.00,VWS V14.01,2013-06-19 16:40:00,
2013-06-19 12:45:00,79.7,75.2,29.93,NNW,333,0.0,5.0,86,0.00,,OVC045,0.00,VWS V14.01,2013-06-19 16:45:00,
2013-06-19 12:50:00,79.7,74.8,29.94,NNW,329,1.0,5.0,85,0.00,,OVC045,0.00,VWS V14.01,2013-06-19 16:50:00,
2013-06-19 12:55:00,79.5,74.9,29.94,NNW,329,0.0,5.0,86,0.00,,OVC045,0.00,VWS V14.01,2013-06-19 16:55:00,
2013-06-19 13:00:00,79.3,74.8,29.94,NNW,329,0.0,0.0,86,0.00,,OVC045,0.00,VWS V14.01,2013-06-19 17:00:00,
2013-06-19 13:05:00,79.1,74.6,29.94,NNW,329,0.0,2.0,86,0.00,,-RA,0.00,VWS V14.01,2013-06-19 17:05:00,
2013-06-19 13:10:00,78.9,74.4,29.93,NNW,329,0.0,2.0,86,0.00,,-RA,0.00,VWS V14.01,2013-06-19 17:10:00,
2013-06-19 13:15:00,78.7,74.5,29.93,NNW,329,0.0,2.0,87,0.00,,-RA,0.00,VWS V14.01,2013-06-19 17:15:00,
2013-06-19 13:20:00,78.7,74.5,29.93,NNW,329,0.0,2.0,87,0.00,,-RA,0.00,VWS V14.01,2013-06-19 17:20:00,
2013-06-19 13:25:00,78.7,74.5,29.93,SW,222,0.0,2.0,87,0.00,,-RA,0.00,VWS V14.01,2013-06-19 17:25:00,
2013-06-19 13:30:00,78.7,74.5,29.93,WNW,290,0.0,1.0,87,0.00,,-RA,0.00,VWS V14.01,2013-06-19 17:30:00,
2013-06-19 13:35:00,78.7,74.5,29.93,WNW,290,0.0,1.0,87,0.00,,OVC041,0.00,VWS V14.01,2013-06-19 17:35:00,
2013-06-19 13:40:00,78.7,74.2,29.93,NW,304,2.0,4.0,86,0.00,,OVC041,0.00,VWS V14.01,2013-06-19 17:40:00,
2013-06-19 13:45:00,78.7,74.5,29.93,NW,304,0.0,0.0,87,0.00,,OVC041,0.00,VWS V14.01,2013-06-19 17:45:00,
2013-06-19 13:50:00,78.7,74.2,29.93,NW,304,0.0,4.0,86,0.00,,OVC041,0.00,VWS V14.01,2013-06-19 17:50:00,
2013-06-19 13:56:00,78.7,74.2,29.93,NW,304,0.0,4.0,86,0.00,,OVC041,0.00,VWS V14.01,2013-06-19 17:56:00,
2013-06-19 14:00:00,78.6,74.1,29.93,NW,304,0.0,4.0,86,0.00,,BKN035,0.00,VWS V14.01,2013-06-19 18:00:00,
2013-06-19 14:01:00,78.5,74.0,29.93,NW,304,0.0,0.0,86,0.00,,OVC041,0.00,VWS V14.01,2013-06-19 18:01:00,
2013-06-19 14:06:00,78.3,73.8,29.93,NW,304,0.0,1.0,86,0.00,,RA,0.00,VWS V14.01,2013-06-19 18:06:00,
2013-06-19 14:11:00,78.1,73.9,29.93,NW,304,0.0,1.0,87,0.00,,RA,0.00,VWS V14.01,2013-06-19 18:11:00,
2013-06-19 14:15:00,77.8,73.6,29.93,NW,304,0.0,1.0,87,0.00,,BKN035,0.00,VWS V14.01,2013-06-19 18:15:00,
2013-06-19 14:16:00,77.8,73.6,29.93,NW,304,0.0,0.0,87,0.00,,RA,0.00,VWS V14.01,2013-06-19 18:16:00,
2013-06-19 14:21:00,77.6,73.8,29.93,NW,304,0.0,0.0,88,0.00,,RA,0.00,VWS V14.01,2013-06-19 18:21:00,
2013-06-19 14:26:00,77.6,73.8,29.93,NW,304,0.0,0.0,88,0.00,,RA,0.00,VWS V14.01,2013-06-19 18:26:00,
2013-06-19 14:30:00,77.5,74.0,29.93,NW,304,0.0,0.0,89,0.00,,BKN035,0.00,VWS V14.01,2013-06-19 18:30:00,
2013-06-19 14:31:00,77.5,74.0,29.93,NW,304,0.0,0.0,89,0.00,,RA,0.00,VWS V14.01,2013-06-19 18:31:00,
2013-06-19 14:36:00,77.4,73.9,29.93,NW,304,0.0,0.0,89,0.00,,-RA,0.00,VWS V14.01,2013-06-19 18:36:00,
2013-06-19 14:41:00,77.1,73.9,29.93,NW,304,0.0,0.0,90,0.00,,-RA,0.00,VWS V14.01,2013-06-19 18:41:00,
2013-06-19 14:45:00,76.9,73.8,29.92,NW,304,0.0,0.0,90,0.00,,BKN035,0.00,VWS V14.01,2013-06-19 18:45:00,
2013-06-19 14:46:00,76.9,73.8,29.92,NW,304,0.0,0.0,90,0.00,,-RA,0.00,VWS V14.01,2013-06-19 18:46:00,
2013-06-19 14:51:00,76.7,73.9,29.93,NW,304,0.0,0.0,91,0.01,,-RA,0.01,VWS V14.01,2013-06-19 18:51:00,
2013-06-19 14:56:00,76.6,73.8,29.92,NW,304,0.0,0.0,91,0.01,,-RA,0.01,VWS V14.01,2013-06-19 18:56:00,
2013-06-19 15:00:00,76.4,73.6,29.93,NW,304,0.0,0.0,91,0.01,,BKN035,0.01,VWS V14.01,2013-06-19 19:00:00,
2013-06-19 15:01:00,76.4,73.6,29.93,NW,304,0.0,0.0,91,0.01,, +RA,0.01,VWS V14.01,2013-06-19 19:01:00,
2013-06-19 15:06:00,76.2,73.7,29.93,NW,304,0.0,0.0,92,0.01,, +RA,0.01,VWS V14.01,2013-06-19 19:06:00,
2013-06-19 15:11:00,76.2,73.7,29.92,NW,304,0.0,2.0,92,0.01,, +RA,0.01,VWS V14.01,2013-06-19 19:11:00,
2013-06-19 15:15:00,76.4,73.9,29.93,NW,304,0.0,2.0,92,0.01,,BKN035,0.01,VWS V14.01,2013-06-19 19:15:00,
2013-06-19 15:16:00,76.5,74.0,29.93,NW,304,1.0,1.0,92,0.01,, +RA,0.01,VWS V14.01,2013-06-19 19:16:00,
2013-06-19 15:21:00,77.0,74.5,29.93,NW,311,2.0,6.0,92,0.01,, +RA,0.01,VWS V14.01,2013-06-19 19:21:00,
2013-06-19 15:26:00,77.2,73.7,29.92,North,350,2.0,6.0,89,0.01,, +RA,0.01,VWS V14.01,2013-06-19 19:26:00,
2013-06-19 15:30:00,77.2,73.7,29.92,NW,315,0.0,6.0,89,0.01,,BKN035,0.01,VWS V14.01,2013-06-19 19:30:00,
2013-06-19 15:31:00,77.2,73.4,29.92,NW,315,1.0,2.0,88,0.01,,RA,0.01,VWS V14.01,2013-06-19 19:31:00,
2013-06-19 15:36:00,76.8,73.0,29.92,NNW,344,0.0,3.0,88,0.01,,RA,0.01,VWS V14.01,2013-06-19 19:36:00,
2013-06-19 15:41:00,76.7,73.2,29.92,NNW,344,0.0,3.0,89,0.01,,RA,0.01,VWS V14.01,2013-06-19 19:41:00,
2013-06-19 15:45:00,76.7,72.9,29.92,NNW,344,0.0,3.0,88,0.01,,BKN035,0.01,VWS V14.01,2013-06-19 19:45:00,
2013-06-19 15:46:00,76.7,72.9,29.93,NNW,344,0.0,0.0,88,0.01,,RA,0.01,VWS V14.01,2013-06-19 19:46:00,
2013-06-19 15:51:00,76.4,72.6,29.93,NNW,344,1.0,2.0,88,0.01,,RA,0.01,VWS V14.01,2013-06-19 19:51:00,
2013-06-19 15:56:00,76.3,72.8,29.93,NNW,344,0.0,2.0,89,0.01,,RA,0.01,VWS V14.01,2013-06-19 19:56:00,
2013-06-19 16:00:00,76.2,72.7,29.93,NNW,344,0.0,2.0,89,0.02,,BKN035,0.02,VWS V14.01,2013-06-19 20:00:00,
2013-06-19 16:01:00,76.2,72.7,29.93,NNW,344,0.0,0.0,89,0.01,,-RA,0.02,VWS V14.01,2013-06-19 20:01:00,
2013-06-19 16:06:00,76.0,72.9,29.92,NNW,344,0.0,0.0,90,0.01,,-RA,0.02,VWS V14.01,2013-06-19 20:06:00,
2013-06-19 16:11:00,75.8,72.7,29.92,NNW,344,0.0,1.0,90,0.02,,-RA,0.03,VWS V14.01,2013-06-19 20:11:00,
2013-06-19 16:15:00,75.6,72.8,29.92,NNW,344,0.0,1.0,91,0.02,,BKN035,0.03,VWS V14.01,2013-06-19 20:15:00,
2013-06-19 16:16:00,75.6,72.8,29.92,NNW,344,0.0,0.0,91,0.02,,-RA,0.03,VWS V14.01,2013-06-19 20:16:00,
2013-06-19 16:21:00,75.4,72.6,29.93,NNW,344,0.0,1.0,91,0.02,,-RA,0.03,VWS V14.01,2013-06-19 20:21:00,
2013-06-19 16:26:00,75.2,72.4,29.93,NNW,344,0.0,2.0,91,0.02,,-RA,0.03,VWS V14.01,2013-06-19 20:26:00,
2013-06-19 16:30:00,75.0,72.5,29.93,NNW,344,0.0,2.0,92,0.02,,BKN035,0.03,VWS V14.01,2013-06-19 20:30:00,
2013-06-19 16:31:00,75.0,72.5,29.93,NNW,344,0.0,0.0,92,0.02,,-RA,0.03,VWS V14.01,2013-06-19 20:31:00,
2013-06-19 16:37:00,74.9,72.7,29.93,NNW,344,0.0,0.0,93,0.02,,-RA,0.03,VWS V14.01,2013-06-19 20:37:00,
2013-06-19 16:42:00,74.8,72.6,29.94,NNW,344,0.0,0.0,93,0.02,,-RA,0.03,VWS V14.01,2013-06-19 20:42:00,
2013-06-19 16:45:00,74.8,72.6,29.94,NNW,344,0.0,0.0,93,0.02,,BKN035,0.03,VWS V14.01,2013-06-19 20:45:00,
2013-06-19 16:47:00,74.8,72.6,29.94,NNW,344,0.0,0.0,93,0.03,,-RA,0.04,VWS V14.01,2013-06-19 20:47:00,
2013-06-19 16:52:00,74.6,72.4,29.93,NNW,344,0.0,0.0,93,0.04,,-RA,0.05,VWS V14.01,2013-06-19 20:52:00,
2013-06-19 16:57:00,74.4,72.6,29.92,NNW,344,0.0,0.0,94,0.05,,-RA,0.06,VWS V14.01,2013-06-19 20:57:00,
2013-06-19 17:00:00,74.2,72.4,29.92,NNW,344,0.0,0.0,94,0.05,,BKN035,0.06,VWS V14.01,2013-06-19 21:00:00,
2013-06-19 17:02:00,74.2,72.4,29.92,NNW,344,0.0,0.0,94,0.04,,-RA,0.06,VWS V14.01,2013-06-19 21:02:00,
2013-06-19 17:07:00,74.1,72.3,29.93,NNW,344,0.0,0.0,94,0.04,,-RA,0.06,VWS V14.01,2013-06-19 21:07:00,
2013-06-19 17:12:00,74.1,72.3,29.93,NNW,344,0.0,0.0,94,0.04,,-RA,0.06,VWS V14.01,2013-06-19 21:12:00,
2013-06-19 17:15:00,74.1,72.6,29.92,NNW,344,0.0,0.0,95,0.04,,BKN035,0.06,VWS V14.01,2013-06-19 21:15:00,
2013-06-19 17:17:00,74.1,72.6,29.92,NNW,344,0.0,0.0,95,0.03,,-RA,0.06,VWS V14.01,2013-06-19 21:17:00,
2013-06-19 17:22:00,74.2,72.7,29.93,WNW,287,4.0,4.0,95,0.03,,-RA,0.06,VWS V14.01,2013-06-19 21:22:00,
2013-06-19 17:27:00,74.1,72.3,29.92,WSW,237,1.0,4.0,94,0.03,,-RA,0.06,VWS V14.01,2013-06-19 21:27:00,
2013-06-19 17:30:00,73.7,71.9,29.93,WSW,237,0.0,4.0,94,0.03,,BKN035,0.06,VWS V14.01,2013-06-19 21:30:00,
2013-06-19 17:32:00,73.5,71.4,29.93,WSW,237,0.0,0.0,93,0.03,,-RA,0.06,VWS V14.01,2013-06-19 21:32:00,
2013-06-19 17:37:00,73.1,71.0,29.93,WSW,237,0.0,0.0,93,0.03,,-RA,0.06,VWS V14.01,2013-06-19 21:37:00,
2013-06-19 17:42:00,73.0,70.9,29.93,WSW,237,0.0,0.0,93,0.03,,-RA,0.06,VWS V14.01,2013-06-19 21:42:00,
2013-06-19 17:45:00,72.9,71.1,29.93,WSW,237,0.0,0.0,94,0.03,,BKN035,0.06,VWS V14.01,2013-06-19 21:45:00,
2013-06-19 17:47:00,72.8,70.7,29.93,WSW,237,0.0,0.0,93,0.03,,-RA,0.06,VWS V14.01,2013-06-19 21:47:00,
2013-06-19 17:52:00,72.7,70.6,29.93,WSW,237,0.0,0.0,93,0.03,,-RA,0.06,VWS V14.01,2013-06-19 21:52:00,
2013-06-19 17:57:00,72.9,71.1,29.94,WSW,237,0.0,0.0,94,0.03,,-RA,0.06,VWS V14.01,2013-06-19 21:57:00,
2013-06-19 18:00:00,73.0,71.2,29.94,WSW,237,0.0,0.0,94,0.03,,BKN035,0.06,VWS V14.01,2013-06-19 22:00:00,
2013-06-19 18:02:00,73.0,71.2,29.94,WSW,237,0.0,0.0,94,0.00,,OVC042,0.06,VWS V14.01,2013-06-19 22:02:00,
2013-06-19 18:07:00,72.9,70.8,29.95,WSW,237,0.0,0.0,93,0.00,,OVC042,0.06,VWS V14.01,2013-06-19 22:07:00,
2013-06-19 18:12:00,72.9,70.8,29.95,WSW,237,0.0,0.0,93,0.00,,OVC042,0.06,VWS V14.01,2013-06-19 22:12:00,
2013-06-19 18:15:00,73.0,70.9,29.95,WSW,237,0.0,0.0,93,0.00,,BKN035,0.06,VWS V14.01,2013-06-19 22:15:00,
2013-06-19 18:17:00,73.1,71.0,29.95,WSW,237,0.0,0.0,93,0.00,,OVC042,0.06,VWS V14.01,2013-06-19 22:17:00,
2013-06-19 18:22:00,73.4,71.3,29.95,WSW,237,0.0,0.0,93,0.00,,OVC042,0.06,VWS V14.01,2013-06-19 22:22:00,
2013-06-19 18:27:00,73.3,70.8,29.94,WSW,237,0.0,0.0,92,0.00,,OVC042,0.06,VWS V14.01,2013-06-19 22:27:00,
2013-06-19 18:30:00,73.3,70.8,29.94,WSW,237,0.0,0.0,92,0.00,,BKN035,0.06,VWS V14.01,2013-06-19 22:30:00,
2013-06-19 18:32:00,73.4,70.9,29.94,WSW,237,0.0,0.0,92,0.00,,OVC042,0.06,VWS V14.01,2013-06-19 22:32:00,
2013-06-19 18:37:00,73.4,70.9,29.95,WSW,237,0.0,0.0,92,0.00,,OVC042,0.06,VWS V14.01,2013-06-19 22:37:00,
2013-06-19 18:42:00,73.3,70.8,29.95,WSW,237,0.0,0.0,92,0.00,,OVC042,0.06,VWS V14.01,2013-06-19 22:42:00,
2013-06-19 18:45:00,73.4,70.9,29.95,WSW,237,0.0,0.0,92,0.00,,BKN035,0.06,VWS V14.01,2013-06-19 22:45:00,
2013-06-19 18:47:00,73.4,70.9,29.95,WSW,237,0.0,0.0,92,0.00,,OVC042,0.06,VWS V14.01,2013-06-19 22:47:00,
2013-06-19 18:52:00,73.4,70.6,29.94,WSW,237,0.0,0.0,91,0.00,,OVC042,0.06,VWS V14.01,2013-06-19 22:52:00,
2013-06-19 18:57:00,73.3,70.8,29.94,WSW,237,0.0,0.0,92,0.00,,OVC042,0.06,VWS V14.01,2013-06-19 22:57:00,
2013-06-19 19:00:00,73.3,70.8,29.95,WSW,237,0.0,0.0,92,0.00,,BKN035,0.06,VWS V14.01,2013-06-19 23:00:00,
2013-06-19 19:02:00,73.3,70.8,29.95,WSW,237,0.0,0.0,92,0.00,,OVC080,0.06,VWS V14.01,2013-06-19 23:02:00,
2013-06-19 19:07:00,73.2,70.4,29.95,WSW,237,0.0,2.0,91,0.00,,OVC080,0.06,VWS V14.01,2013-06-19 23:07:00,
2013-06-19 19:12:00,73.2,70.4,29.95,WSW,237,0.0,2.0,91,0.00,,OVC080,0.06,VWS V14.01,2013-06-19 23:12:00,
2013-06-19 19:15:00,73.2,70.4,29.95,WSW,237,0.0,2.0,91,0.00,,BKN035,0.06,VWS V14.01,2013-06-19 23:15:00,
2013-06-19 19:17:00,73.2,70.4,29.95,WSW,237,0.0,1.0,91,0.00,,OVC080,0.06,VWS V14.01,2013-06-19 23:17:00,
2013-06-19 19:22:00,73.1,70.0,29.94,WSW,237,0.0,1.0,90,0.00,,OVC080,0.06,VWS V14.01,2013-06-19 23:22:00,
2013-06-19 19:28:00,73.1,70.0,29.94,WSW,237,0.0,1.0,90,0.00,,OVC080,0.06,VWS V14.01,2013-06-19 23:28:00,
2013-06-19 19:30:00,73.0,69.9,29.94,WSW,237,0.0,1.0,90,0.00,,BKN035,0.06,VWS V14.01,2013-06-19 23:30:00,
2013-06-19 19:33:00,73.0,69.9,29.94,WSW,237,0.0,1.0,90,0.00,,OVC080,0.06,VWS V14.01,2013-06-19 23:33:00,
2013-06-19 19:38:00,72.9,69.8,29.94,WSW,237,0.0,1.0,90,0.00,,OVC080,0.06,VWS V14.01,2013-06-19 23:38:00,
2013-06-19 19:43:00,72.9,69.8,29.94,WSW,237,0.0,2.0,90,0.00,,OVC080,0.06,VWS V14.01,2013-06-19 23:43:00,
2013-06-19 19:45:00,72.9,69.8,29.95,WSW,237,0.0,2.0,90,0.00,,BKN035,0.06,VWS V14.01,2013-06-19 23:45:00,
2013-06-19 19:48:00,72.9,69.8,29.95,WSW,237,0.0,0.0,90,0.00,,OVC080,0.06,VWS V14.01,2013-06-19 23:48:00,
2013-06-19 19:53:00,72.9,69.8,29.95,WSW,237,0.0,0.0,90,0.00,,OVC080,0.06,VWS V14.01,2013-06-19 23:53:00,
2013-06-19 19:58:00,72.9,69.8,29.95,WSW,237,0.0,1.0,90,0.00,,OVC080,0.06,VWS V14.01,2013-06-19 23:58:00,
2013-06-19 20:00:00,72.9,69.8,29.95,WSW,237,0.0,1.0,90,0.00,,BKN035,0.06,VWS V14.01,2013-06-20 00:00:00,
2013-06-19 20:03:00,72.9,69.8,29.96,WSW,237,0.0,0.0,90,0.00,,FEW070,0.06,VWS V14.01,2013-06-20 00:03:00,
2013-06-19 20:08:00,72.8,70.0,29.97,WSW,237,0.0,0.0,91,0.00,,FEW070,0.06,VWS V14.01,2013-06-20 00:08:00,
2013-06-19 20:13:00,72.7,69.9,29.97,WSW,237,0.0,0.0,91,0.00,,FEW070,0.06,VWS V14.01,2013-06-20 00:13:00,
2013-06-19 20:15:00,72.7,69.9,29.97,WSW,237,0.0,0.0,91,0.00,,BKN035,0.06,VWS V14.01,2013-06-20 00:15:00,
2013-06-19 20:18:00,72.7,69.9,29.97,WSW,237,0.0,0.0,91,0.00,,FEW070,0.06,VWS V14.01,2013-06-20 00:18:00,
2013-06-19 20:23:00,72.6,69.8,29.97,WSW,237,0.0,0.0,91,0.00,,FEW070,0.06,VWS V14.01,2013-06-20 00:23:00,
2013-06-19 20:28:00,72.5,69.7,29.97,WSW,237,0.0,0.0,91,0.00,,FEW070,0.06,VWS V14.01,2013-06-20 00:28:00,
2013-06-19 20:30:00,72.4,69.6,29.97,WSW,237,0.0,0.0,91,0.00,,BKN035,0.06,VWS V14.01,2013-06-20 00:30:00,
2013-06-19 20:33:00,72.4,69.6,29.97,WSW,237,0.0,0.0,91,0.00,,FEW070,0.06,VWS V14.01,2013-06-20 00:33:00,
2013-06-19 20:38:00,72.3,69.5,29.97,WSW,237,0.0,0.0,91,0.00,,FEW070,0.06,VWS V14.01,2013-06-20 00:38:00,
2013-06-19 20:43:00,72.3,69.5,29.97,WSW,237,0.0,0.0,91,0.00,,FEW070,0.06,VWS V14.01,2013-06-20 00:43:00,
2013-06-19 20:45:00,72.3,69.8,29.97,WSW,237,0.0,0.0,92,0.00,,BKN035,0.06,VWS V14.01,2013-06-20 00:45:00,
2013-06-19 20:48:00,72.3,69.8,29.97,WSW,237,0.0,0.0,92,0.00,,FEW070,0.06,VWS V14.01,2013-06-20 00:48:00,
2013-06-19 20:53:00,72.3,69.5,29.98,WSW,237,0.0,0.0,91,0.00,,FEW070,0.06,VWS V14.01,2013-06-20 00:53:00,
2013-06-19 20:58:00,72.2,69.4,29.98,WSW,237,0.0,0.0,91,0.00,,FEW070,0.06,VWS V14.01,2013-06-20 00:58:00,
2013-06-19 21:00:00,72.2,69.4,29.98,WSW,237,0.0,0.0,91,0.00,,BKN035,0.06,VWS V14.01,2013-06-20 01:00:00,
2013-06-19 21:03:00,72.2,69.4,29.98,WSW,237,0.0,0.0,91,0.00,,CLR,0.06,VWS V14.01,2013-06-20 01:03:00,
2013-06-19 21:08:00,72.2,69.8,29.99,WSW,237,0.0,0.0,92,0.00,,CLR,0.06,VWS V14.01,2013-06-20 01:08:00,
2013-06-19 21:13:00,72.2,69.4,29.99,WSW,237,0.0,0.0,91,0.00,,CLR,0.06,VWS V14.01,2013-06-20 01:13:00,
2013-06-19 21:15:00,72.2,69.8,29.99,WSW,237,0.0,0.0,92,0.00,,BKN035,0.06,VWS V14.01,2013-06-20 01:15:00,
2013-06-19 21:18:00,72.2,69.8,29.99,WSW,237,0.0,0.0,92,0.00,,CLR,0.06,VWS V14.01,2013-06-20 01:18:00,
2013-06-19 21:23:00,72.2,69.8,29.99,WSW,237,0.0,0.0,92,0.00,,CLR,0.06,VWS V14.01,2013-06-20 01:23:00,
2013-06-19 21:28:00,72.1,69.7,29.99,WSW,237,0.0,0.0,92,0.00,,CLR,0.06,VWS V14.01,2013-06-20 01:28:00,
2013-06-19 21:30:00,72.1,69.7,29.99,WSW,237,0.0,0.0,92,0.00,,BKN035,0.06,VWS V14.01,2013-06-20 01:30:00,
2013-06-19 21:33:00,72.0,69.6,29.99,WSW,237,0.0,0.0,92,0.00,,CLR,0.06,VWS V14.01,2013-06-20 01:33:00,
2013-06-19 21:38:00,71.9,69.4,29.99,WSW,237,0.0,0.0,92,0.00,,CLR,0.06,VWS V14.01,2013-06-20 01:38:00,
2013-06-19 21:43:00,71.8,69.3,30.00,WSW,237,0.0,0.0,92,0.00,,CLR,0.06,VWS V14.01,2013-06-20 01:43:00,
2013-06-19 21:45:00,71.8,69.4,30.00,WSW,237,0.0,0.0,92,0.00,,BKN035,0.06,VWS V14.01,2013-06-20 01:45:00,
2013-06-19 21:48:00,71.7,69.3,30.00,WSW,237,0.0,0.0,92,0.00,,CLR,0.06,VWS V14.01,2013-06-20 01:48:00,
2013-06-19 21:53:00,71.7,69.3,30.00,WSW,237,0.0,0.0,92,0.00,,CLR,0.06,VWS V14.01,2013-06-20 01:53:00,
2013-06-19 21:58:00,71.7,69.3,30.00,WSW,237,0.0,0.0,92,0.00,,CLR,0.06,VWS V14.01,2013-06-20 01:58:00,
2013-06-19 22:00:00,71.6,69.2,30.00,WSW,237,0.0,0.0,92,0.00,,BKN035,0.06,VWS V14.01,2013-06-20 02:00:00,
2013-06-19 22:03:00,71.6,69.2,30.00,WSW,237,0.0,0.0,92,0.00,,CLR,0.06,VWS V14.01,2013-06-20 02:03:00,
2013-06-19 22:08:00,71.5,69.1,30.00,WSW,237,0.0,0.0,92,0.00,,CLR,0.06,VWS V14.01,2013-06-20 02:08:00,
2013-06-19 22:13:00,71.5,69.1,30.00,WSW,237,0.0,0.0,92,0.00,,CLR,0.06,VWS V14.01,2013-06-20 02:13:00,
2013-06-19 22:15:00,71.5,69.1,30.00,WSW,237,0.0,0.0,92,0.00,,BKN035,0.06,VWS V14.01,2013-06-20 02:15:00,
2013-06-19 22:18:00,71.4,69.0,30.00,WSW,237,0.0,0.0,92,0.00,,CLR,0.06,VWS V14.01,2013-06-20 02:18:00,
2013-06-19 22:23:00,71.3,68.9,30.00,WSW,237,0.0,0.0,92,0.00,,CLR,0.06,VWS V14.01,2013-06-20 02:23:00,
2013-06-19 22:29:00,71.3,68.9,30.01,SW,223,0.0,2.0,92,0.00,,CLR,0.06,VWS V14.01,2013-06-20 02:29:00,
2013-06-19 22:30:00,71.3,68.9,30.01,SW,223,0.0,2.0,92,0.00,,BKN035,0.06,VWS V14.01,2013-06-20 02:30:00,
2013-06-19 22:34:00,71.3,68.9,30.01,SW,223,0.0,0.0,92,0.00,,CLR,0.06,VWS V14.01,2013-06-20 02:34:00,
2013-06-19 22:39:00,71.2,69.1,30.01,SW,223,0.0,0.0,93,0.00,,CLR,0.06,VWS V14.01,2013-06-20 02:39:00,
2013-06-19 22:44:00,71.2,69.1,30.01,SW,223,0.0,0.0,93,0.00,,CLR,0.06,VWS V14.01,2013-06-20 02:44:00,
2013-06-19 22:45:00,71.2,69.1,30.01,SW,223,0.0,0.0,93,0.00,,BKN035,0.06,VWS V14.01,2013-06-20 02:45:00,
2013-06-19 22:49:00,71.1,69.0,30.01,SW,223,0.0,0.0,93,0.00,,CLR,0.06,VWS V14.01,2013-06-20 02:49:00,
2013-06-19 22:54:00,71.0,68.9,30.01,SW,223,0.0,0.0,93,0.00,,CLR,0.06,VWS V14.01,2013-06-20 02:54:00,
2013-06-19 22:59:00,70.9,68.8,30.01,SW,223,0.0,0.0,93,0.00,,CLR,0.06,VWS V14.01,2013-06-20 02:59:00,
2013-06-19 23:00:00,70.9,68.8,30.01,SW,223,0.0,0.0,93,0.00,,BKN035,0.06,VWS V14.01,2013-06-20 03:00:00,
2013-06-19 23:04:00,70.9,68.8,30.01,SW,223,0.0,0.0,93,0.00,,CLR,0.06,VWS V14.01,2013-06-20 03:04:00,
2013-06-19 23:09:00,70.8,68.7,30.01,SW,223,0.0,0.0,93,0.00,,CLR,0.06,VWS V14.01,2013-06-20 03:09:00,
2013-06-19 23:14:00,70.8,68.7,30.02,SW,223,0.0,0.0,93,0.00,,CLR,0.06,VWS V14.01,2013-06-20 03:14:00,
2013-06-19 23:15:00,70.8,68.7,30.01,SW,223,0.0,0.0,93,0.00,,BKN035,0.06,VWS V14.01,2013-06-20 03:15:00,
2013-06-19 23:19:00,70.7,68.6,30.02,SW,223,0.0,0.0,93,0.00,,CLR,0.06,VWS V14.01,2013-06-20 03:19:00,
2013-06-19 23:24:00,70.7,68.9,30.01,SW,223,0.0,0.0,94,0.00,,CLR,0.06,VWS V14.01,2013-06-20 03:24:00,
2013-06-19 23:29:00,70.7,68.6,30.01,SW,223,0.0,0.0,93,0.00,,CLR,0.06,VWS V14.01,2013-06-20 03:29:00,
2013-06-19 23:30:00,70.7,68.6,30.02,SW,223,0.0,0.0,93,0.00,,BKN035,0.06,VWS V14.01,2013-06-20 03:30:00,
2013-06-19 23:34:00,70.6,68.5,30.02,SW,223,0.0,0.0,93,0.00,,CLR,0.06,VWS V14.01,2013-06-20 03:34:00,
2013-06-19 23:39:00,70.6,68.8,30.02,SW,223,0.0,0.0,94,0.00,,CLR,0.06,VWS V14.01,2013-06-20 03:39:00,
2013-06-19 23:44:00,70.6,68.8,30.02,SW,223,0.0,0.0,94,0.00,,CLR,0.06,VWS V14.01,2013-06-20 03:44:00,
2013-06-19 23:45:00,70.6,68.8,30.02,SW,223,0.0,0.0,94,0.00,,BKN035,0.06,VWS V14.01,2013-06-20 03:45:00,
2013-06-19 23:49:00,70.7,68.9,30.02,SW,223,0.0,0.0,94,0.00,,CLR,0.06,VWS V14.01,2013-06-20 03:49:00,
2013-06-19 23:54:00,70.7,68.9,30.02,SW,223,0.0,0.0,94,0.00,,CLR,0.06,VWS V14.01,2013-06-20 03:54:00,
2013-06-19 23:59:00,70.8,69.0,30.02,SW,223,0.0,0.0,94,0.00,,CLR,0.06,VWS V14.01,2013-06-20 03:59:00,